sensor_id;sensor_type;location;lat;lon;timestamp;temperature;humidity
16321;DHT22;8269;50.990;4.494;2023-03-20T11:09:20;10.10;99.90
16321;DHT22;8269;50.990;4.494;2023-03-20T11:11:47;10.30;99.90
16321;DHT22;8269;50.990;4.494;2023-03-20T11:14:21;10.40;99.90
16321;DHT22;8269;50.990;4.494;2023-03-20T11:16:52;10.50;99.90
16321;DHT22;8269;50.990;4.494;2023-03-20T11:19:20;10.50;99.90
16321;DHT22;8269;50.990;4.494;2023-03-20T11:21:50;10.70;99.90
16321;DHT22;8269;50.990;4.494;2023-03-20T11:24:40;10.80;99.90
16321;DHT22;8269;50.990;4.494;2023-03-20T11:27:14;10.90;99.90
16321;DHT22;8269;50.990;4.494;2023-03-20T11:29:41;11.10;99.90
16321;DHT22;8269;50.990;4.494;2023-03-20T11:34:45;11.60;99.90
16321;DHT22;8269;50.990;4.494;2023-03-20T11:37:28;11.60;99.90
16321;DHT22;8269;50.990;4.494;2023-03-20T11:40:09;11.60;99.90
16321;DHT22;8269;50.990;4.494;2023-03-20T11:42:35;11.60;99.90
16321;DHT22;8269;50.990;4.494;2023-03-20T11:45:15;11.60;99.90
16321;DHT22;8269;50.990;4.494;2023-03-20T11:47:41;11.70;99.90
16321;DHT22;8269;50.990;4.494;2023-03-20T11:52:52;11.90;99.90
16321;DHT22;8269;50.990;4.494;2023-03-20T11:55:36;12.20;99.90
16321;DHT22;8269;50.990;4.494;2023-03-20T11:58:03;12.20;99.90
16321;DHT22;8269;50.990;4.494;2023-03-20T12:00:38;12.00;99.90
16321;DHT22;8269;50.990;4.494;2023-03-20T12:06:14;12.00;99.90
16321;DHT22;8269;50.990;4.494;2023-03-20T12:56:31;12.20;99.90
16321;DHT22;8269;50.990;4.494;2023-03-20T13:01:54;12.00;99.90
16321;DHT22;8269;50.990;4.494;2023-03-20T13:07:45;11.90;99.90
16321;DHT22;8269;50.990;4.494;2023-03-20T13:10:20;11.90;99.90
16321;DHT22;8269;50.990;4.494;2023-03-20T13:12:56;11.90;99.90
16321;DHT22;8269;50.990;4.494;2023-03-20T13:15:29;11.90;99.90
16321;DHT22;8269;50.990;4.494;2023-03-20T13:18:18;11.80;99.90
16321;DHT22;8269;50.990;4.494;2023-03-20T13:20:50;11.70;99.90
16321;DHT22;8269;50.990;4.494;2023-03-20T13:25:53;11.70;99.90
16321;DHT22;8269;50.990;4.494;2023-03-20T13:37:20;11.90;99.90
16321;DHT22;8269;50.990;4.494;2023-03-20T13:42:30;12.00;99.90
16321;DHT22;8269;50.990;4.494;2023-03-20T13:45:03;11.80;99.90
16321;DHT22;8269;50.990;4.494;2023-03-20T13:47:30;11.70;99.90
16321;DHT22;8269;50.990;4.494;2023-03-20T13:52:34;11.60;99.90
16321;DHT22;8269;50.990;4.494;2023-03-20T13:58:18;11.50;99.90
16321;DHT22;8269;50.990;4.494;2023-03-20T14:04:00;11.50;99.90
16321;DHT22;8269;50.990;4.494;2023-03-20T14:08:55;11.40;99.90
16321;DHT22;8269;50.990;4.494;2023-03-20T14:11:25;11.50;99.90
16321;DHT22;8269;50.990;4.494;2023-03-20T14:14:07;11.60;99.90
16321;DHT22;8269;50.990;4.494;2023-03-20T14:16:37;11.60;99.90
16321;DHT22;8269;50.990;4.494;2023-03-20T14:19:18;11.60;99.90
16321;DHT22;8269;50.990;4.494;2023-03-20T14:21:50;11.60;99.90
16321;DHT22;8269;50.990;4.494;2023-03-20T14:24:18;11.50;99.90
16321;DHT22;8269;50.990;4.494;2023-03-20T14:27:18;11.50;99.90
16321;DHT22;8269;50.990;4.494;2023-03-20T14:29:45;11.50;99.90
16321;DHT22;8269;50.990;4.494;2023-03-20T14:45:42;12.00;99.90
16321;DHT22;8269;50.990;4.494;2023-03-20T14:48:16;12.00;99.90
16321;DHT22;8269;50.990;4.494;2023-03-20T14:51:20;12.00;99.90
16321;DHT22;8269;50.990;4.494;2023-03-20T14:53:57;12.10;99.90
16321;DHT22;8269;50.990;4.494;2023-03-20T14:56:42;12.10;99.90
16321;DHT22;8269;50.990;4.494;2023-03-20T14:59:09;12.00;99.90
16321;DHT22;8269;50.990;4.494;2023-03-20T15:01:42;12.00;99.90
16321;DHT22;8269;50.990;4.494;2023-03-20T15:04:22;12.00;99.90
16321;DHT22;8269;50.990;4.494;2023-03-20T15:09:45;11.80;99.90
16321;DHT22;8269;50.990;4.494;2023-03-20T15:15:04;11.80;99.90
16321;DHT22;8269;50.990;4.494;2023-03-20T15:17:45;11.80;99.90
16321;DHT22;8269;50.990;4.494;2023-03-20T15:20:16;11.80;99.90
16321;DHT22;8269;50.990;4.494;2023-03-20T15:22:55;11.80;99.90
16321;DHT22;8269;50.990;4.494;2023-03-20T15:26:05;11.80;99.90
16321;DHT22;8269;50.990;4.494;2023-03-20T15:28:18;11.80;99.90
16321;DHT22;8269;50.990;4.494;2023-03-20T15:30:47;11.90;99.90
16321;DHT22;8269;50.990;4.494;2023-03-20T15:33:18;11.90;99.90
16321;DHT22;8269;50.990;4.494;2023-03-20T15:35:47;12.00;99.90
16321;DHT22;8269;50.990;4.494;2023-03-20T15:38:15;12.00;99.90
16321;DHT22;8269;50.990;4.494;2023-03-20T15:40:41;11.90;99.90
16321;DHT22;8269;50.990;4.494;2023-03-20T15:45:40;11.80;99.90
16321;DHT22;8269;50.990;4.494;2023-03-20T15:48:10;11.80;99.90
16321;DHT22;8269;50.990;4.494;2023-03-20T15:50:39;11.90;99.90
16321;DHT22;8269;50.990;4.494;2023-03-20T15:53:07;11.90;99.90
16321;DHT22;8269;50.990;4.494;2023-03-20T15:55:36;11.90;99.90
16321;DHT22;8269;50.990;4.494;2023-03-20T15:58:03;11.90;99.90
16321;DHT22;8269;50.990;4.494;2023-03-20T16:00:31;11.90;99.90
16321;DHT22;8269;50.990;4.494;2023-03-20T16:03:00;11.90;99.90
16321;DHT22;8269;50.990;4.494;2023-03-20T16:05:28;11.90;99.90
16321;DHT22;8269;50.990;4.494;2023-03-20T16:07:55;11.90;99.90
16321;DHT22;8269;50.990;4.494;2023-03-20T16:12:53;11.80;99.90
